createdAt,value
2022-09-05T00:00:04.367Z,14.10
2022-09-05T00:02:59.889Z,14.10
2022-09-05T00:06:03.543Z,14.00
2022-09-05T00:08:38.235Z,14.00
2022-09-05T00:11:41.104Z,14.00
2022-09-05T00:14:58.611Z,14.00
2022-09-05T00:17:22.470Z,14.00
2022-09-05T00:24:26.411Z,14.00
2022-09-05T00:24:29.592Z,13.90
2022-09-05T00:25:59.894Z,13.90
2022-09-05T00:28:36.187Z,13.90
2022-09-05T00:31:55.598Z,13.90
2022-09-05T00:34:46.510Z,13.90
2022-09-05T00:37:16.455Z,13.90
2022-09-05T00:39:47.805Z,13.90
2022-09-05T00:42:23.712Z,13.90
2022-09-05T00:44:55.276Z,14.00
2022-09-05T00:47:30.215Z,14.10
2022-09-05T00:50:00.054Z,14.20
2022-09-05T00:52:32.868Z,14.30
2022-09-05T00:55:20.062Z,14.30
2022-09-05T00:58:01.833Z,14.40
2022-09-05T01:00:35.919Z,14.50
2022-09-05T01:03:31.247Z,14.60
2022-09-05T01:06:29.214Z,14.70
2022-09-05T01:09:34.079Z,14.70
2022-09-05T01:12:22.666Z,14.70
2022-09-05T01:15:08.180Z,14.70
2022-09-05T01:17:50.123Z,14.70
2022-09-05T01:20:31.469Z,14.80
2022-09-05T01:23:13.068Z,14.80
2022-09-05T01:25:55.155Z,14.90
2022-09-05T01:29:16.852Z,15.00
2022-09-05T01:31:18.633Z,15.00
2022-09-05T01:33:54.827Z,15.10
2022-09-05T01:36:47.024Z,15.10
2022-09-05T01:40:11.173Z,15.10
2022-09-05T01:42:17.199Z,15.10
2022-09-05T01:44:58.186Z,15.10
2022-09-05T01:47:38.246Z,15.10
2022-09-05T01:50:21.334Z,15.10
2022-09-05T01:53:05.458Z,15.10
2022-09-05T01:56:04.961Z,15.10
2022-09-05T01:58:47.603Z,15.00
2022-09-05T02:01:26.624Z,15.00
2022-09-05T02:04:21.810Z,15.00
2022-09-05T02:07:15.221Z,15.00
2022-09-05T02:10:09.186Z,14.90
2022-09-05T02:12:36.698Z,14.90
2022-09-05T02:15:06.335Z,14.90
2022-09-05T02:17:50.960Z,14.80
2022-09-05T02:20:23.845Z,14.80
2022-09-05T02:23:00.917Z,14.80
2022-09-05T02:26:02.330Z,14.70
2022-09-05T02:28:21.734Z,14.70
2022-09-05T02:31:19.180Z,14.70
2022-09-05T02:33:46.144Z,14.70
2022-09-05T02:36:17.515Z,14.60
2022-09-05T02:43:57.229Z,14.60
2022-09-05T02:45:08.057Z,14.60
2022-09-05T02:45:18.370Z,14.60
2022-09-05T02:47:24.030Z,14.50
2022-09-05T02:53:30.101Z,14.50
2022-09-05T02:57:30.072Z,14.40
2022-09-05T02:57:42.127Z,14.40
2022-09-05T02:59:35.939Z,14.40
2022-09-05T03:02:25.095Z,14.30
2022-09-05T03:05:04.299Z,14.20
2022-09-05T03:08:22.926Z,14.20
2022-09-05T03:11:28.780Z,14.10
2022-09-05T03:14:32.412Z,14.10
2022-09-05T03:17:45.513Z,14.00
2022-09-05T03:21:08.952Z,14.00
2022-09-05T03:23:59.307Z,13.90
2022-09-05T03:26:51.219Z,13.90
2022-09-05T03:29:58.595Z,13.80
2022-09-05T03:33:02.903Z,13.80
2022-09-05T03:36:23.313Z,13.70
2022-09-05T03:39:42.446Z,13.70
2022-09-05T03:42:55.826Z,13.70
2022-09-05T03:46:08.142Z,13.60
2022-09-05T03:49:10.503Z,13.50
2022-09-05T03:57:06.233Z,13.50
2022-09-05T03:57:22.992Z,13.40
2022-09-05T03:58:56.327Z,13.30
2022-09-05T04:02:04.774Z,13.30
2022-09-05T04:08:10.650Z,13.30
2022-09-05T04:08:30.602Z,13.20
2022-09-05T04:09:51.807Z,13.20
2022-09-05T04:12:20.266Z,13.20
2022-09-05T04:14:50.309Z,13.10
2022-09-05T04:17:28.911Z,13.10
2022-09-05T04:19:59.759Z,13.10
2022-09-05T04:22:32.096Z,13.00
2022-09-05T04:25:05.751Z,13.00
2022-09-05T04:27:41.082Z,13.00
2022-09-05T04:30:37.840Z,13.00
2022-09-05T04:33:11.540Z,12.90
2022-09-05T04:35:44.123Z,12.90
2022-09-05T04:38:15.126Z,12.90
2022-09-05T04:40:47.034Z,12.90
2022-09-05T04:43:19.957Z,12.90
2022-09-05T04:45:50.994Z,12.90
2022-09-05T04:48:21.619Z,12.90
2022-09-05T04:51:13.014Z,12.90
2022-09-05T04:54:14.415Z,12.90
2022-09-05T04:56:45.887Z,12.90
2022-09-05T05:02:59.729Z,13.00
2022-09-05T05:05:59.890Z,13.00
2022-09-05T05:06:17.106Z,13.00
2022-09-05T05:07:47.508Z,13.10
2022-09-05T05:11:34.874Z,13.10
2022-09-05T05:18:02.720Z,13.20
2022-09-05T05:18:12.787Z,13.30
2022-09-05T05:19:03.087Z,13.30
2022-09-05T05:21:32.823Z,13.40
2022-09-05T05:24:01.506Z,13.50
2022-09-05T05:26:34.006Z,13.60
2022-09-05T05:29:02.378Z,13.70
2022-09-05T05:31:31.336Z,13.70
2022-09-05T05:33:59.211Z,13.80
2022-09-05T05:36:30.021Z,13.90
2022-09-05T05:38:59.160Z,14.00
2022-09-05T05:41:31.741Z,14.00
2022-09-05T05:43:55.658Z,14.10
2022-09-05T05:46:32.458Z,14.20
2022-09-05T05:49:15.341Z,14.30
2022-09-05T05:52:02.381Z,14.40
2022-09-05T05:54:32.926Z,14.40
2022-09-05T05:57:41.854Z,14.60
2022-09-05T06:00:27.488Z,14.60
2022-09-05T06:03:48.153Z,14.80
2022-09-05T06:06:50.624Z,14.90
2022-09-05T06:14:54.798Z,15.10
2022-09-05T06:17:01.974Z,15.30
2022-09-05T06:22:05.832Z,15.50
2022-09-05T06:23:56.083Z,15.70
2022-09-05T06:27:03.326Z,16.40
2022-09-05T06:29:39.756Z,17.00
2022-09-05T06:32:18.720Z,17.20
2022-09-05T06:35:11.791Z,17.80
2022-09-05T06:37:45.619Z,18.20
2022-09-05T06:40:19.206Z,18.40
2022-09-05T06:43:18.463Z,19.10
2022-09-05T06:46:04.309Z,19.70
2022-09-05T06:48:45.888Z,19.60
2022-09-05T06:52:27.843Z,20.00
2022-09-05T06:55:28.149Z,20.10
2022-09-05T06:58:48.787Z,20.20
2022-09-05T07:01:14.266Z,20.00
2022-09-05T07:05:14.651Z,20.00
2022-09-05T07:07:06.502Z,20.00
2022-09-05T07:09:38.723Z,20.10
2022-09-05T07:12:15.938Z,19.60
2022-09-05T07:14:54.843Z,19.40
2022-09-05T07:17:28.134Z,19.10
2022-09-05T07:19:58.380Z,19.30
2022-09-05T07:22:47.104Z,19.40
2022-09-05T07:25:18.764Z,19.50
2022-09-05T07:28:26.352Z,19.30
2022-09-05T07:30:42.071Z,19.40
2022-09-05T07:33:06.370Z,19.40
2022-09-05T07:35:41.597Z,19.40
2022-09-05T07:38:13.886Z,19.10
2022-09-05T07:40:42.218Z,18.90
2022-09-05T07:43:10.633Z,18.90
2022-09-05T07:45:37.837Z,18.80
2022-09-05T07:48:09.621Z,18.90
2022-09-05T07:56:39.225Z,18.90
2022-09-05T07:56:56.542Z,18.90
2022-09-05T07:57:10.066Z,18.80
2022-09-05T07:58:55.630Z,18.90
2022-09-05T08:01:23.564Z,19.00
2022-09-05T08:03:47.477Z,18.90
2022-09-05T08:07:14.417Z,19.00
2022-09-05T08:10:03.841Z,19.10
2022-09-05T08:11:52.850Z,19.10
2022-09-05T08:14:44.972Z,19.20
2022-09-05T08:17:15.330Z,19.30
2022-09-05T08:20:09.049Z,19.40
2022-09-05T08:22:48.089Z,19.50
2022-09-05T08:25:22.706Z,19.40
2022-09-05T08:28:06.360Z,19.40
2022-09-05T08:30:32.523Z,19.50
2022-09-05T08:33:11.406Z,19.60
2022-09-05T08:35:42.519Z,19.60
2022-09-05T08:38:07.719Z,19.60
2022-09-05T08:40:38.982Z,19.70
2022-09-05T08:46:04.568Z,19.80
2022-09-05T08:46:41.611Z,20.00
2022-09-05T08:49:32.316Z,20.10
2022-09-05T08:52:09.455Z,20.20
2022-09-05T08:54:39.790Z,20.20
2022-09-05T08:57:15.446Z,20.40
2022-09-05T09:00:10.317Z,20.60
2022-09-05T09:03:04.444Z,20.60
2022-09-05T09:06:16.110Z,20.70
2022-09-05T09:08:55.136Z,20.70
2022-09-05T09:11:34.270Z,20.70
2022-09-05T09:14:43.727Z,20.80
2022-09-05T09:17:26.801Z,20.80
2022-09-05T09:19:58.468Z,20.90
2022-09-05T09:22:40.590Z,21.00
2022-09-05T09:25:15.146Z,21.10
2022-09-05T09:28:45.081Z,21.30
2022-09-05T09:30:57.446Z,21.50
2022-09-05T09:33:32.987Z,21.80
2022-09-05T09:36:07.971Z,21.80
2022-09-05T09:38:43.091Z,21.90
2022-09-05T09:41:45.657Z,22.00
2022-09-05T09:45:27.448Z,22.10
2022-09-05T09:48:20.762Z,22.30
2022-09-05T09:51:04.188Z,22.50
2022-09-05T09:53:53.320Z,22.80
2022-09-05T09:57:02.922Z,22.80
2022-09-05T10:00:09.932Z,23.10
2022-09-05T10:06:54.070Z,23.50
2022-09-05T10:09:40.047Z,23.60
2022-09-05T10:11:07.997Z,23.60
2022-09-05T10:13:21.800Z,23.70
2022-09-05T10:16:38.149Z,23.70
2022-09-05T10:23:02.115Z,24.00
2022-09-05T10:25:41.512Z,24.30
2022-09-05T10:28:09.033Z,24.30
2022-09-05T10:32:32.604Z,24.60
2022-09-05T10:35:12.866Z,24.80
2022-09-05T10:36:33.751Z,24.60
2022-09-05T10:39:17.302Z,24.70
2022-09-05T10:41:51.000Z,24.60
2022-09-05T10:44:15.967Z,24.40
2022-09-05T10:46:56.058Z,24.50
2022-09-05T10:49:30.137Z,24.70
2022-09-05T10:52:09.973Z,24.60
2022-09-05T10:55:15.185Z,24.70
2022-09-05T10:57:51.547Z,25.20
2022-09-05T11:02:23.406Z,25.40
2022-09-05T11:03:31.700Z,25.30
2022-09-05T11:06:09.083Z,25.30
2022-09-05T11:08:42.910Z,25.40
2022-09-05T11:11:20.698Z,25.30
2022-09-05T11:13:54.417Z,25.40
2022-09-05T11:16:29.811Z,25.40
2022-09-05T11:19:00.608Z,25.50
2022-09-05T11:21:32.561Z,25.50
2022-09-05T11:24:00.787Z,25.10
2022-09-05T11:26:42.339Z,24.80
2022-09-05T11:29:11.659Z,25.20
2022-09-05T11:32:22.450Z,25.20
2022-09-05T11:39:55.070Z,25.20
2022-09-05T11:40:02.600Z,25.20
2022-09-05T11:42:28.371Z,25.40
2022-09-05T11:45:43.943Z,25.50
2022-09-05T11:48:36.632Z,25.20
2022-09-05T11:51:36.563Z,25.50
2022-09-05T11:54:57.160Z,25.40
2022-09-05T11:57:49.231Z,25.20
2022-09-05T12:00:33.795Z,25.20
2022-09-05T12:03:58.686Z,25.10
2022-09-05T12:06:59.438Z,24.90
2022-09-05T12:09:42.682Z,24.90
2022-09-05T12:12:39.402Z,24.80
2022-09-05T12:15:26.051Z,24.80
2022-09-05T12:18:19.084Z,24.80
2022-09-05T12:20:55.268Z,25.00
2022-09-05T12:23:51.445Z,25.10
2022-09-05T12:27:42.197Z,25.20
2022-09-05T12:29:33.658Z,25.20
2022-09-05T12:33:56.612Z,25.00
2022-09-05T12:36:10.578Z,24.90
2022-09-05T12:39:56.016Z,25.00
2022-09-05T12:41:39.227Z,25.20
2022-09-05T12:44:37.493Z,25.20
2022-09-05T12:46:09.605Z,25.00
2022-09-05T12:48:55.149Z,25.00
2022-09-05T12:51:46.247Z,25.20
2022-09-05T12:54:32.586Z,25.20
2022-09-05T13:02:58.205Z,25.40
2022-09-05T13:02:58.702Z,25.30
2022-09-05T13:03:11.798Z,25.40
2022-09-05T13:05:26.969Z,25.40
2022-09-05T13:07:57.116Z,25.60
2022-09-05T13:14:20.184Z,25.50
2022-09-05T13:14:58.512Z,25.70
2022-09-05T13:15:57.999Z,25.60
2022-09-05T13:18:24.751Z,25.60
2022-09-05T13:21:07.698Z,25.40
2022-09-05T13:23:37.256Z,25.20
2022-09-05T13:26:08.039Z,25.30
2022-09-05T13:28:44.555Z,25.10
2022-09-05T13:36:01.296Z,25.00
2022-09-05T13:38:05.047Z,25.20
2022-09-05T13:38:19.073Z,24.90
2022-09-05T13:39:52.865Z,24.80
2022-09-05T13:42:20.814Z,24.90
2022-09-05T13:44:46.482Z,24.90
2022-09-05T13:47:30.091Z,24.70
2022-09-05T13:50:11.583Z,24.60
2022-09-05T13:52:43.605Z,24.70
2022-09-05T13:55:22.798Z,24.40
2022-09-05T13:57:51.631Z,24.40
2022-09-05T14:01:11.733Z,24.40
2022-09-05T14:07:47.526Z,24.50
2022-09-05T14:10:59.387Z,24.30
2022-09-05T14:13:28.195Z,24.50
2022-09-05T14:15:59.096Z,24.70
2022-09-05T14:18:26.021Z,24.90
2022-09-05T14:21:14.160Z,24.90
2022-09-05T14:23:53.853Z,24.90
2022-09-05T14:26:26.647Z,25.00
2022-09-05T14:29:05.125Z,24.80
2022-09-05T14:37:34.665Z,24.60
2022-09-05T14:37:45.590Z,24.40
2022-09-05T14:38:09.509Z,24.30
2022-09-05T14:41:28.313Z,24.40
2022-09-05T14:44:34.089Z,24.50
2022-09-05T14:47:36.542Z,24.50
2022-09-05T14:50:27.647Z,24.40
2022-09-05T14:57:23.795Z,24.30
2022-09-05T15:02:50.083Z,24.30
2022-09-05T15:02:58.243Z,24.30
2022-09-05T15:07:05.402Z,24.30
2022-09-05T15:12:15.230Z,24.20
2022-09-05T15:12:31.251Z,24.10
2022-09-05T15:15:22.942Z,24.00
2022-09-05T15:17:51.107Z,24.00
2022-09-05T15:20:31.462Z,23.90
2022-09-05T15:22:57.585Z,23.90
2022-09-05T15:25:23.943Z,23.90
2022-09-05T15:27:49.600Z,23.90
2022-09-05T15:30:27.534Z,23.90
2022-09-05T15:33:25.828Z,23.80
2022-09-05T15:35:49.929Z,23.80
2022-09-05T15:38:38.723Z,23.70
2022-09-05T15:41:22.222Z,23.60
2022-09-05T15:43:59.769Z,23.60
2022-09-05T15:46:41.230Z,23.50
2022-09-05T15:49:10.407Z,23.50
2022-09-05T15:51:47.625Z,23.50
2022-09-05T15:54:30.742Z,23.50
2022-09-05T15:57:08.955Z,23.40
2022-09-05T15:59:48.243Z,23.30
2022-09-05T16:02:21.144Z,23.30
2022-09-05T16:09:56.646Z,23.20
2022-09-05T16:10:39.235Z,23.20
2022-09-05T16:10:58.330Z,23.20
2022-09-05T16:13:15.671Z,23.10
2022-09-05T16:20:13.027Z,23.10
2022-09-05T16:23:24.617Z,23.10
2022-09-05T16:23:35.078Z,23.10
2022-09-05T16:24:18.499Z,23.10
2022-09-05T16:26:53.579Z,23.00
2022-09-05T16:29:26.540Z,23.00
2022-09-05T16:32:08.547Z,23.00
2022-09-05T16:34:42.714Z,23.00
2022-09-05T16:37:12.475Z,22.90
2022-09-05T16:39:40.169Z,22.90
2022-09-05T16:42:12.019Z,22.80
2022-09-05T16:44:39.998Z,22.80
2022-09-05T16:47:13.133Z,22.80
2022-09-05T16:49:41.907Z,22.70
2022-09-05T16:52:09.831Z,22.70
2022-09-05T16:54:47.674Z,22.70
2022-09-05T16:57:18.238Z,22.60
2022-09-05T16:59:45.674Z,22.60
2022-09-05T17:02:12.073Z,22.60
2022-09-05T17:05:04.985Z,22.50
2022-09-05T17:07:33.881Z,22.50
2022-09-05T17:10:07.633Z,22.50
2022-09-05T17:12:35.343Z,22.40
2022-09-05T17:15:04.339Z,22.40
2022-09-05T17:18:20.740Z,22.30
2022-09-05T17:20:23.431Z,22.30
2022-09-05T17:26:00.498Z,22.20
2022-09-05T17:29:25.249Z,22.10
2022-09-05T17:29:32.596Z,22.10
2022-09-05T17:31:54.982Z,22.00
2022-09-05T17:34:51.931Z,21.90
2022-09-05T17:37:44.647Z,21.80
2022-09-05T17:41:19.627Z,21.80
2022-09-05T17:43:43.870Z,21.70
2022-09-05T17:46:20.170Z,21.60
2022-09-05T17:49:18.726Z,21.60
2022-09-05T17:52:18.242Z,21.60
2022-09-05T17:54:49.556Z,21.50
2022-09-05T17:57:49.392Z,21.40
2022-09-05T18:01:07.615Z,21.40
2022-09-05T18:04:17.579Z,21.30
2022-09-05T18:06:59.349Z,21.20
2022-09-05T18:10:12.324Z,21.20
2022-09-05T18:13:13.713Z,21.10
2022-09-05T18:16:18.212Z,21.00
2022-09-05T18:21:52.436Z,20.80
2022-09-05T18:24:32.679Z,20.80
2022-09-05T18:27:28.202Z,20.70
2022-09-05T18:29:58.608Z,20.60
2022-09-05T18:32:45.242Z,20.40
2022-09-05T18:35:26.498Z,20.40
2022-09-05T18:38:50.545Z,20.30
2022-09-05T18:41:16.007Z,20.20
2022-09-05T18:44:13.385Z,20.10
2022-09-05T18:46:48.079Z,20.00
2022-09-05T18:50:21.752Z,19.90
2022-09-05T18:52:05.739Z,19.90
2022-09-05T18:54:34.909Z,19.80
2022-09-05T18:57:28.643Z,19.70
2022-09-05T18:59:54.351Z,19.60
2022-09-05T19:02:41.143Z,19.60
2022-09-05T19:05:15.987Z,19.50
2022-09-05T19:07:48.123Z,19.40
2022-09-05T19:10:34.354Z,19.30
2022-09-05T19:13:09.090Z,19.20
2022-09-05T19:15:47.953Z,19.10
2022-09-05T19:18:26.060Z,19.10
2022-09-05T19:21:16.723Z,19.00
2022-09-05T19:23:49.272Z,19.00
2022-09-05T19:26:13.846Z,18.90
2022-09-05T19:36:54.140Z,18.70
2022-09-05T19:36:56.020Z,18.80
2022-09-05T19:37:10.672Z,18.60
2022-09-05T19:37:28.923Z,18.50
2022-09-05T19:44:41.327Z,18.50
2022-09-05T19:47:33.735Z,18.40
2022-09-05T19:47:36.182Z,18.40
2022-09-05T19:50:57.242Z,18.20
2022-09-05T19:53:22.037Z,18.20
2022-09-05T19:55:46.542Z,18.20
2022-09-05T19:58:19.041Z,18.10
2022-09-05T20:00:50.408Z,18.10
2022-09-05T20:03:26.432Z,18.00
2022-09-05T20:05:51.525Z,17.90
2022-09-05T20:08:16.095Z,17.90
2022-09-05T20:10:39.996Z,17.80
2022-09-05T20:13:22.193Z,17.80
2022-09-05T20:15:46.034Z,17.70
2022-09-05T20:18:22.716Z,17.60
2022-09-05T20:20:55.234Z,17.60
2022-09-05T20:23:19.861Z,17.50
2022-09-05T20:25:48.079Z,17.50
2022-09-05T20:28:16.254Z,17.50
2022-09-05T20:30:45.309Z,17.40
2022-09-05T20:33:20.564Z,17.30
2022-09-05T20:43:09.759Z,17.30
2022-09-05T20:43:20.494Z,17.20
2022-09-05T20:43:35.040Z,17.20
2022-09-05T20:44:22.579Z,17.10
2022-09-05T20:50:11.627Z,17.10
2022-09-05T20:54:09.741Z,17.00
2022-09-05T20:54:22.576Z,17.00
2022-09-05T20:55:40.278Z,16.90
2022-09-05T20:58:10.895Z,16.90
2022-09-05T21:00:34.679Z,16.80
2022-09-05T21:03:00.864Z,16.70
2022-09-05T21:05:31.290Z,16.70
2022-09-05T21:08:26.415Z,16.60
2022-09-05T21:10:55.839Z,16.60
2022-09-05T21:13:27.248Z,16.60
2022-09-05T21:15:53.004Z,16.60
2022-09-05T21:18:20.864Z,16.60
2022-09-05T21:20:54.511Z,16.60
2022-09-05T21:23:22.338Z,16.50
2022-09-05T21:25:55.922Z,16.50
2022-09-05T21:28:36.431Z,16.50
2022-09-05T21:31:05.101Z,16.50
2022-09-05T21:33:38.841Z,16.60
2022-09-05T21:36:08.945Z,16.60
2022-09-05T21:38:40.591Z,16.60
2022-09-05T21:41:07.077Z,16.60
2022-09-05T21:47:37.889Z,16.60
2022-09-05T21:47:38.804Z,16.50
2022-09-05T21:48:59.095Z,16.60
2022-09-05T21:51:25.127Z,16.50
2022-09-05T21:57:00.363Z,16.60
2022-09-05T21:59:25.145Z,16.60
2022-09-05T21:59:40.039Z,16.60
2022-09-05T22:02:10.257Z,16.60
2022-09-05T22:04:38.695Z,16.60
2022-09-05T22:07:06.349Z,16.60
2022-09-05T22:09:30.795Z,16.60
2022-09-05T22:11:56.539Z,16.70
2022-09-05T22:14:21.339Z,16.60
2022-09-05T22:16:46.558Z,16.50
2022-09-05T22:19:10.307Z,16.50
2022-09-05T22:21:38.406Z,16.40
2022-09-05T22:24:06.527Z,16.40
2022-09-05T22:26:37.860Z,16.40
2022-09-05T22:29:05.800Z,16.30
2022-09-05T22:31:29.712Z,16.30
2022-09-05T22:33:53.491Z,16.30
2022-09-05T22:36:17.178Z,16.30
2022-09-05T22:38:43.302Z,16.30
2022-09-05T22:41:07.335Z,16.30
2022-09-05T22:43:31.103Z,16.30
2022-09-05T22:45:58.034Z,16.20
2022-09-05T22:48:21.861Z,16.20
2022-09-05T22:50:45.510Z,16.20
2022-09-05T22:53:10.570Z,16.30
2022-09-05T22:55:34.961Z,16.30
2022-09-05T22:57:58.646Z,16.30
2022-09-05T23:00:22.455Z,16.30
2022-09-05T23:02:52.195Z,16.30
2022-09-05T23:05:16.559Z,16.30
2022-09-05T23:07:40.223Z,16.30
2022-09-05T23:10:05.243Z,16.30
2022-09-05T23:12:28.962Z,16.30
2022-09-05T23:14:52.590Z,16.30
2022-09-05T23:17:16.241Z,16.30
2022-09-05T23:19:41.300Z,16.30
2022-09-05T23:22:05.287Z,16.30
2022-09-05T23:24:28.971Z,16.30
2022-09-05T23:26:52.602Z,16.30
2022-09-05T23:29:16.346Z,16.30
2022-09-05T23:31:39.947Z,16.30
2022-09-05T23:34:03.619Z,16.20
2022-09-05T23:36:28.679Z,16.20
2022-09-05T23:38:52.399Z,16.20
2022-09-05T23:41:16.962Z,16.20
2022-09-05T23:43:40.633Z,16.20
2022-09-05T23:46:05.487Z,16.20
2022-09-05T23:48:29.796Z,16.10
2022-09-05T23:50:53.731Z,16.10
2022-09-05T23:53:19.159Z,16.10
2022-09-05T23:55:43.434Z,16.10
2022-09-05T23:58:07.097Z,16.10
